createdAt,value
2017-11-19T00:00:00.900Z,100223
2017-11-19T00:02:29.078Z,100215
2017-11-19T00:04:57.242Z,100205
2017-11-19T00:07:25.449Z,100212
2017-11-19T00:09:53.699Z,100214
2017-11-19T00:12:23.374Z,100205
2017-11-19T00:14:51.520Z,100197
2017-11-19T00:17:19.682Z,100188
2017-11-19T00:19:47.959Z,100196
2017-11-19T00:22:16.553Z,100182
2017-11-19T00:24:44.741Z,100173
2017-11-19T00:27:12.894Z,100165
2017-11-19T00:29:41.075Z,100164
2017-11-19T00:32:09.382Z,100180
2017-11-19T00:34:37.551Z,100147
2017-11-19T00:37:07.158Z,100177
2017-11-19T00:39:35.295Z,100179
2017-11-19T00:42:03.458Z,100159
2017-11-19T00:44:31.599Z,100161
2017-11-19T00:47:00.886Z,100155
2017-11-19T00:49:29.017Z,100167
2017-11-19T00:51:57.186Z,100172
2017-11-19T00:54:25.335Z,100171
2017-11-19T00:56:53.462Z,100171
2017-11-19T00:59:21.614Z,100162
2017-11-19T01:01:49.754Z,100168
2017-11-19T01:04:17.880Z,100189
2017-11-19T01:06:46.027Z,100191
2017-11-19T01:09:14.580Z,100183
2017-11-19T01:11:43.442Z,100185
2017-11-19T01:14:11.581Z,100159
2017-11-19T01:16:39.707Z,100163
2017-11-19T01:19:07.979Z,100154
2017-11-19T01:21:36.116Z,100147
2017-11-19T01:24:04.299Z,100140
2017-11-19T01:26:32.438Z,100143
2017-11-19T01:29:00.705Z,100140
2017-11-19T01:31:29.307Z,100129
2017-11-19T01:33:57.516Z,100136
2017-11-19T01:36:25.704Z,100137
2017-11-19T01:38:53.814Z,100137
2017-11-19T01:41:21.998Z,100120
2017-11-19T01:43:50.162Z,100121
2017-11-19T01:46:18.291Z,100126
2017-11-19T01:48:46.485Z,100116
2017-11-19T01:51:14.639Z,100116
2017-11-19T01:53:43.171Z,100113
2017-11-19T01:56:11.342Z,100106
2017-11-19T01:58:39.475Z,100099
2017-11-19T02:01:07.642Z,100066
2017-11-19T02:03:35.783Z,100099
2017-11-19T02:06:04.346Z,100075
2017-11-19T02:08:32.483Z,100101
2017-11-19T02:11:00.615Z,100111
2017-11-19T02:13:28.723Z,100097
2017-11-19T02:15:56.939Z,100087
2017-11-19T02:18:25.511Z,100082
2017-11-19T02:20:53.682Z,100089
2017-11-19T02:23:21.927Z,100086
2017-11-19T02:25:50.075Z,100076
2017-11-19T02:28:18.351Z,100069
2017-11-19T02:30:46.491Z,100075
2017-11-19T02:33:14.648Z,100075
2017-11-19T02:35:42.823Z,100069
2017-11-19T02:38:11.682Z,100073
2017-11-19T02:40:39.820Z,100081
2017-11-19T02:43:08.265Z,100065
2017-11-19T02:45:37.134Z,100060
2017-11-19T02:48:05.282Z,100077
2017-11-19T02:50:33.411Z,100076
2017-11-19T02:53:01.592Z,100088
2017-11-19T02:55:29.723Z,100092
2017-11-19T02:57:58.345Z,100075
2017-11-19T03:00:29.362Z,100065
2017-11-19T03:02:57.486Z,100042
2017-11-19T03:05:27.334Z,100048
2017-11-19T03:07:55.497Z,100043
2017-11-19T03:10:23.663Z,100055
2017-11-19T03:12:51.778Z,100065
2017-11-19T03:15:19.885Z,100076
2017-11-19T03:17:47.994Z,100059
2017-11-19T03:20:16.250Z,100037
2017-11-19T03:22:44.399Z,100046
2017-11-19T03:25:12.618Z,100030
2017-11-19T03:27:41.162Z,100045
2017-11-19T03:30:09.323Z,100036
2017-11-19T03:32:37.445Z,100058
2017-11-19T03:35:05.585Z,100054
2017-11-19T03:37:33.749Z,100074
2017-11-19T03:40:02.024Z,100076
2017-11-19T03:42:30.643Z,100061
2017-11-19T03:44:58.763Z,100054
2017-11-19T03:47:26.926Z,100054
2017-11-19T03:49:55.980Z,100052
2017-11-19T03:52:24.098Z,100048
2017-11-19T03:54:52.990Z,100033
2017-11-19T03:57:21.874Z,100032
2017-11-19T03:59:51.177Z,100033
2017-11-19T04:02:19.301Z,100021
2017-11-19T04:04:47.726Z,100019
2017-11-19T04:07:15.825Z,100008
2017-11-19T04:09:43.976Z,100006
2017-11-19T04:12:12.111Z,100016
2017-11-19T04:14:40.355Z,100015
2017-11-19T04:17:08.479Z,100012
2017-11-19T04:19:36.596Z,100009
2017-11-19T04:22:04.770Z,100012
2017-11-19T04:24:33.391Z,100017
2017-11-19T04:27:01.558Z,100017
2017-11-19T04:29:29.706Z,100029
2017-11-19T04:31:57.911Z,100046
2017-11-19T04:34:26.086Z,100028
2017-11-19T04:36:54.298Z,100030
2017-11-19T04:39:22.482Z,100017
2017-11-19T04:41:50.633Z,100012
2017-11-19T04:44:18.780Z,100004
2017-11-19T04:46:47.222Z,99985
2017-11-19T04:49:16.087Z,100000
2017-11-19T04:51:44.235Z,99991
2017-11-19T04:54:12.356Z,99980
2017-11-19T04:56:40.678Z,99975
2017-11-19T04:59:08.811Z,99968
2017-11-19T05:01:37.875Z,99977
2017-11-19T05:04:06.050Z,99967
2017-11-19T05:06:34.196Z,99981
2017-11-19T05:09:02.383Z,99984
2017-11-19T05:11:30.550Z,99963
2017-11-19T05:13:59.091Z,99968
2017-11-19T05:16:27.278Z,99971
2017-11-19T05:18:55.386Z,100019
2017-11-19T05:21:23.515Z,99982
2017-11-19T05:23:51.641Z,99971
2017-11-19T05:26:21.262Z,99953
2017-11-19T05:28:49.399Z,99960
2017-11-19T05:31:17.554Z,99949
2017-11-19T05:33:46.139Z,99955
2017-11-19T05:36:14.362Z,99947
2017-11-19T05:38:42.520Z,99937
2017-11-19T05:41:10.641Z,99945
2017-11-19T05:43:38.766Z,99943
2017-11-19T05:46:06.971Z,99941
2017-11-19T05:48:35.550Z,99942
2017-11-19T05:51:03.836Z,99941
2017-11-19T05:53:32.883Z,99943
2017-11-19T05:56:01.007Z,99937
2017-11-19T05:58:29.862Z,99937
2017-11-19T06:00:58.010Z,99935
2017-11-19T06:03:26.466Z,99943
2017-11-19T06:05:54.588Z,99968
2017-11-19T06:08:22.703Z,99953
2017-11-19T06:10:50.836Z,99957
2017-11-19T06:13:19.339Z,99949
2017-11-19T06:15:47.442Z,99942
2017-11-19T06:18:15.543Z,99944
2017-11-19T06:20:43.663Z,99935
2017-11-19T06:23:11.810Z,99949
2017-11-19T06:25:39.919Z,99946
2017-11-19T06:28:08.923Z,99945
2017-11-19T06:30:37.036Z,99948
2017-11-19T06:33:05.166Z,99944
2017-11-19T06:35:33.896Z,99934
2017-11-19T06:38:02.023Z,99929
2017-11-19T06:40:30.860Z,99932
2017-11-19T06:42:59.031Z,99947
2017-11-19T06:45:27.166Z,99937
2017-11-19T06:47:56.482Z,99933
2017-11-19T06:50:24.630Z,99942
2017-11-19T06:52:52.771Z,99930
2017-11-19T06:55:20.875Z,99939
2017-11-19T06:57:49.750Z,99961
2017-11-19T07:00:18.506Z,99959
2017-11-19T07:02:46.983Z,99980
2017-11-19T07:05:15.147Z,99924
2017-11-19T07:07:43.266Z,99947
2017-11-19T07:10:11.381Z,99930
2017-11-19T07:12:39.542Z,99937
2017-11-19T07:15:07.652Z,99941
2017-11-19T07:17:36.238Z,99959
2017-11-19T07:20:04.429Z,99971
2017-11-19T07:22:32.594Z,99954
2017-11-19T07:25:00.742Z,99953
2017-11-19T07:27:28.978Z,99962
2017-11-19T07:29:57.228Z,99949
2017-11-19T07:32:25.433Z,99943
2017-11-19T07:34:54.767Z,99968
2017-11-19T07:37:22.920Z,99949
2017-11-19T07:39:51.082Z,99944
2017-11-19T07:42:19.995Z,99943
2017-11-19T07:44:48.139Z,99934
2017-11-19T07:47:16.302Z,99938
2017-11-19T07:49:45.257Z,99928
2017-11-19T07:52:13.521Z,99712
2017-11-19T07:54:41.933Z,99934
2017-11-19T07:57:10.123Z,99922
2017-11-19T07:59:38.939Z,99938
2017-11-19T08:02:07.834Z,99946
2017-11-19T08:04:36.725Z,99940
2017-11-19T08:07:05.640Z,99932
2017-11-19T08:09:33.826Z,99939
2017-11-19T08:12:01.982Z,99932
2017-11-19T08:14:30.274Z,99942
2017-11-19T08:16:58.395Z,99927
2017-11-19T08:19:26.599Z,99951
2017-11-19T08:21:55.498Z,99958
2017-11-19T08:24:24.020Z,99957
2017-11-19T08:26:52.218Z,99960
2017-11-19T08:29:20.357Z,99978
2017-11-19T08:31:48.491Z,99950
2017-11-19T08:34:16.682Z,99939
2017-11-19T08:36:44.818Z,99940
2017-11-19T08:39:12.983Z,99933
2017-11-19T08:41:41.125Z,99956
2017-11-19T08:44:09.300Z,99954
2017-11-19T08:46:37.419Z,99962
2017-11-19T08:49:06.311Z,99962
2017-11-19T08:51:35.642Z,99961
2017-11-19T08:54:03.770Z,99976
2017-11-19T08:56:31.926Z,99978
2017-11-19T08:59:00.039Z,99985
2017-11-19T09:01:28.897Z,99994
2017-11-19T09:03:57.039Z,99988
2017-11-19T09:06:25.165Z,99988
2017-11-19T09:08:53.322Z,99979
2017-11-19T09:11:22.948Z,99979
2017-11-19T09:13:51.834Z,99994
2017-11-19T09:16:20.366Z,100002
2017-11-19T09:18:48.506Z,99993
2017-11-19T09:21:16.604Z,99998
2017-11-19T09:23:44.752Z,99993
2017-11-19T09:26:13.631Z,99994
2017-11-19T09:28:41.745Z,99996
2017-11-19T09:31:10.158Z,100011
2017-11-19T09:33:39.032Z,100005
2017-11-19T09:36:07.171Z,99998
2017-11-19T09:38:35.315Z,100006
2017-11-19T09:41:03.454Z,100009
2017-11-19T09:43:31.573Z,100002
2017-11-19T09:46:00.457Z,100010
2017-11-19T09:48:28.934Z,100000
2017-11-19T09:50:57.058Z,100018
2017-11-19T09:53:25.182Z,100018
2017-11-19T09:55:54.091Z,100012
2017-11-19T09:58:22.223Z,100020
2017-11-19T10:00:50.676Z,100027
2017-11-19T10:03:18.817Z,100033
2017-11-19T10:05:47.711Z,100041
2017-11-19T10:08:17.319Z,100052
2017-11-19T10:10:45.684Z,100051
2017-11-19T10:13:13.863Z,100047
2017-11-19T10:15:42.429Z,100051
2017-11-19T10:20:53.391Z,100044
2017-11-19T10:23:21.806Z,100053
2017-11-19T10:25:49.959Z,100045
2017-11-19T10:28:18.086Z,100046
2017-11-19T10:30:46.231Z,100054
2017-11-19T10:33:15.431Z,100067
2017-11-19T10:35:43.618Z,100058
2017-11-19T10:38:12.543Z,100060
2017-11-19T10:40:40.666Z,100074
2017-11-19T10:43:08.855Z,100079
2017-11-19T10:45:37.739Z,100089
2017-11-19T10:48:06.628Z,100101
2017-11-19T10:50:35.970Z,100088
2017-11-19T10:53:04.182Z,100088
2017-11-19T10:55:32.411Z,100097
2017-11-19T10:58:00.543Z,100080
2017-11-19T11:00:28.680Z,100093
2017-11-19T11:02:56.830Z,100103
2017-11-19T11:05:24.969Z,100095
2017-11-19T11:07:53.106Z,100107
2017-11-19T11:10:21.980Z,100119
2017-11-19T11:12:50.260Z,100102
2017-11-19T11:15:18.731Z,100107
2017-11-19T11:17:47.114Z,100112
2017-11-19T11:20:15.244Z,100125
2017-11-19T11:22:43.382Z,100110
2017-11-19T11:25:11.492Z,100122
2017-11-19T11:27:40.366Z,100117
2017-11-19T11:30:08.494Z,100117
2017-11-19T11:32:36.643Z,100120
2017-11-19T11:35:05.530Z,100114
2017-11-19T11:37:34.535Z,100125
2017-11-19T11:40:02.974Z,100114
2017-11-19T11:42:31.896Z,100123
2017-11-19T11:45:00.225Z,100122
2017-11-19T11:47:28.384Z,100125
2017-11-19T11:49:56.586Z,100127
2017-11-19T11:52:24.807Z,100138
2017-11-19T11:54:52.985Z,100131
2017-11-19T11:57:21.878Z,100134
2017-11-19T11:59:50.826Z,100145
2017-11-19T12:02:18.951Z,100139
2017-11-19T12:04:47.431Z,100144
2017-11-19T12:07:15.571Z,100139
2017-11-19T12:09:43.715Z,100126
2017-11-19T12:12:11.849Z,100150
2017-11-19T12:14:40.027Z,100143
2017-11-19T12:17:08.170Z,100175
2017-11-19T12:19:36.282Z,100185
2017-11-19T12:22:04.467Z,100164
2017-11-19T12:24:32.939Z,100179
2017-11-19T12:27:01.147Z,100183
2017-11-19T12:29:29.326Z,100177
2017-11-19T12:31:57.689Z,100179
2017-11-19T12:34:25.840Z,100185
2017-11-19T12:36:53.993Z,100185
2017-11-19T12:39:22.517Z,100186
2017-11-19T12:41:50.646Z,100185
2017-11-19T12:44:18.766Z,100183
2017-11-19T12:46:46.908Z,100179
2017-11-19T12:49:15.318Z,100174
2017-11-19T12:51:43.458Z,100174
2017-11-19T12:54:11.630Z,100171
2017-11-19T12:56:39.839Z,100166
2017-11-19T12:59:07.993Z,100172
2017-11-19T13:01:36.127Z,100178
2017-11-19T13:04:04.339Z,100170
2017-11-19T13:06:32.806Z,100180
2017-11-19T13:09:01.688Z,100174
2017-11-19T13:11:30.554Z,100191
2017-11-19T13:13:58.669Z,100189
2017-11-19T13:16:27.111Z,100195
2017-11-19T13:18:55.253Z,100188
2017-11-19T13:21:23.384Z,100192
2017-11-19T13:23:51.520Z,100187
2017-11-19T13:26:19.646Z,100192
2017-11-19T13:28:47.768Z,100205
2017-11-19T13:31:16.383Z,100193
2017-11-19T13:33:45.247Z,100201
2017-11-19T13:36:13.405Z,100214
2017-11-19T13:38:41.555Z,100204
2017-11-19T13:41:09.708Z,100194
2017-11-19T13:43:37.836Z,100206
2017-11-19T13:46:06.153Z,100197
2017-11-19T13:48:34.307Z,100199
2017-11-19T13:51:02.507Z,100212
2017-11-19T13:53:30.630Z,100202
2017-11-19T13:55:58.792Z,100204
2017-11-19T13:58:26.935Z,100202
2017-11-19T14:00:55.059Z,100205
2017-11-19T14:03:23.194Z,100209
2017-11-19T14:05:51.385Z,100213
2017-11-19T14:08:19.504Z,100222
2017-11-19T14:10:48.672Z,100210
2017-11-19T14:13:17.084Z,100200
2017-11-19T14:15:46.247Z,100220
2017-11-19T14:18:14.726Z,100222
2017-11-19T14:20:42.862Z,100235
2017-11-19T14:23:11.187Z,100230
2017-11-19T14:25:39.347Z,100243
2017-11-19T14:28:07.486Z,100241
2017-11-19T14:30:37.224Z,100235
2017-11-19T14:33:05.397Z,100227
2017-11-19T14:35:33.511Z,100228
2017-11-19T14:38:01.642Z,100231
2017-11-19T14:40:29.789Z,100237
2017-11-19T14:42:57.913Z,100230
2017-11-19T14:45:26.027Z,100243
2017-11-19T14:47:54.158Z,100239
2017-11-19T14:50:22.278Z,100243
2017-11-19T14:52:50.407Z,100243
2017-11-19T14:55:18.997Z,100243
2017-11-19T14:57:47.119Z,100250
2017-11-19T15:00:15.290Z,100249
2017-11-19T15:02:43.640Z,100258
2017-11-19T15:05:12.511Z,100255
2017-11-19T15:07:40.672Z,100252
2017-11-19T15:10:10.321Z,100254
2017-11-19T15:12:39.189Z,100256
2017-11-19T15:15:07.342Z,100247
2017-11-19T15:17:35.986Z,100263
2017-11-19T15:20:03.965Z,100265
2017-11-19T15:22:32.095Z,100275
2017-11-19T15:25:00.242Z,100279
2017-11-19T15:27:28.395Z,100273
2017-11-19T15:29:56.502Z,100273
2017-11-19T15:32:24.642Z,100262
2017-11-19T15:34:52.782Z,100267
2017-11-19T15:37:20.931Z,100278
2017-11-19T15:39:49.094Z,100268
2017-11-19T15:42:17.714Z,100138
2017-11-19T15:44:46.566Z,100286
2017-11-19T15:47:14.710Z,100288
2017-11-19T15:49:42.851Z,100297
2017-11-19T15:52:11.023Z,100298
2017-11-19T15:54:39.894Z,100307
2017-11-19T15:57:08.014Z,100304
2017-11-19T15:59:36.175Z,100318
2017-11-19T16:02:04.806Z,100300
2017-11-19T16:04:32.955Z,100312
2017-11-19T16:07:01.089Z,100304
2017-11-19T16:09:29.994Z,100309
2017-11-19T16:25:00.796Z,100332
2017-11-19T16:27:29.701Z,100324
2017-11-19T16:29:58.586Z,100330
2017-11-19T16:32:27.497Z,100333
2017-11-19T16:34:55.992Z,100342
2017-11-19T16:37:24.126Z,100335
2017-11-19T16:39:52.271Z,100337
2017-11-19T16:42:20.427Z,100340
2017-11-19T16:44:48.885Z,100350
2017-11-19T16:47:17.031Z,100351
2017-11-19T16:49:45.195Z,100363
2017-11-19T16:52:14.100Z,100358
2017-11-19T16:54:42.318Z,100367
2017-11-19T16:57:10.447Z,100363
2017-11-19T16:59:40.287Z,100364
2017-11-19T17:02:08.438Z,100370
2017-11-19T17:04:37.288Z,100380
2017-11-19T17:07:05.443Z,100393
2017-11-19T17:09:34.318Z,100400
2017-11-19T17:12:02.495Z,100407
2017-11-19T17:14:30.635Z,100407
2017-11-19T17:16:59.517Z,100413
2017-11-19T17:19:27.690Z,100419
2017-11-19T17:21:56.119Z,100414
2017-11-19T17:24:25.317Z,100413
2017-11-19T17:26:53.434Z,100428
2017-11-19T17:29:21.566Z,100421
2017-11-19T17:31:49.711Z,100421
2017-11-19T17:34:17.830Z,100419
2017-11-19T17:36:47.154Z,100433
2017-11-19T17:39:15.306Z,100436
2017-11-19T17:41:43.443Z,100438
2017-11-19T17:44:11.612Z,100439
2017-11-19T17:46:39.748Z,100452
2017-11-19T17:49:08.995Z,100445
2017-11-19T17:51:37.129Z,100451
2017-11-19T17:54:05.276Z,100451
2017-11-19T17:56:33.415Z,100475
2017-11-19T17:59:01.555Z,100474
2017-11-19T18:01:29.699Z,100469
2017-11-19T18:03:57.811Z,100477
2017-11-19T18:06:26.679Z,100483
2017-11-19T18:08:55.203Z,100485
2017-11-19T18:11:23.325Z,100487
2017-11-19T18:13:51.487Z,100494
2017-11-19T18:16:19.604Z,100490
2017-11-19T18:18:48.494Z,100504
2017-11-19T18:21:17.400Z,100504
2017-11-19T18:23:45.540Z,100498
2017-11-19T18:26:13.715Z,100506
2017-11-19T18:28:41.858Z,100512
2017-11-19T18:31:09.984Z,100514
2017-11-19T18:33:38.574Z,100517
2017-11-19T18:36:07.454Z,100520
2017-11-19T18:38:36.352Z,100521
2017-11-19T18:41:04.515Z,100534
2017-11-19T18:43:32.664Z,100530
2017-11-19T18:46:00.921Z,100542
2017-11-19T18:48:29.074Z,100554
2017-11-19T18:50:57.226Z,100553
2017-11-19T18:53:26.096Z,100563
2017-11-19T18:55:54.594Z,100559
2017-11-19T18:58:23.451Z,100567
2017-11-19T19:00:52.257Z,100568
2017-11-19T19:03:20.437Z,100575
2017-11-19T19:05:48.578Z,100590
2017-11-19T19:08:16.710Z,100591
2017-11-19T19:10:44.883Z,100597
2017-11-19T19:13:13.034Z,100603
2017-11-19T19:15:42.834Z,100602
2017-11-19T19:18:10.974Z,100609
2017-11-19T19:20:39.098Z,100600
2017-11-19T19:23:07.230Z,100609
2017-11-19T19:25:35.371Z,100611
2017-11-19T19:28:03.508Z,100622
2017-11-19T19:30:31.673Z,100623
2017-11-19T19:32:59.806Z,100635
2017-11-19T19:35:27.956Z,100628
2017-11-19T19:37:56.122Z,100634
2017-11-19T19:40:25.006Z,100635
2017-11-19T19:42:54.002Z,100651
2017-11-19T19:45:22.158Z,100656
2017-11-19T19:47:50.312Z,100651
2017-11-19T19:50:18.755Z,100656
2017-11-19T19:52:46.914Z,100667
2017-11-19T19:55:15.078Z,100670
2017-11-19T19:57:43.967Z,100674
2017-11-19T20:00:12.883Z,100668
2017-11-19T20:02:41.029Z,100680
2017-11-19T20:05:09.199Z,100678
2017-11-19T20:07:38.206Z,100684
2017-11-19T20:10:06.370Z,100694
2017-11-19T20:12:35.231Z,100692
2017-11-19T20:15:03.859Z,100694
2017-11-19T20:17:32.073Z,100715
2017-11-19T20:20:00.242Z,100713
2017-11-19T20:22:28.386Z,100711
2017-11-19T20:24:56.696Z,100719
2017-11-19T20:27:24.838Z,100724
2017-11-19T20:29:52.961Z,100731
2017-11-19T20:32:21.366Z,100727
2017-11-19T20:34:49.491Z,100735
2017-11-19T20:37:17.669Z,100737
2017-11-19T20:39:45.798Z,100745
2017-11-19T20:42:14.395Z,100737
2017-11-19T20:44:42.610Z,100727
2017-11-19T20:47:10.766Z,100738
2017-11-19T20:49:38.938Z,100736
2017-11-19T20:52:07.066Z,100733
2017-11-19T20:54:35.201Z,100706
2017-11-19T20:57:03.259Z,100745
2017-11-19T20:59:31.394Z,100741
2017-11-19T21:01:59.547Z,100762
2017-11-19T21:04:27.697Z,100749
2017-11-19T21:06:57.355Z,100755
2017-11-19T21:09:26.233Z,100747
2017-11-19T21:11:54.397Z,100749
2017-11-19T21:14:22.519Z,100755
2017-11-19T21:16:50.654Z,100762
2017-11-19T21:19:18.802Z,100758
2017-11-19T21:21:46.934Z,100761
2017-11-19T21:24:15.546Z,100758
2017-11-19T21:26:43.695Z,100752
2017-11-19T21:29:12.635Z,100750
2017-11-19T21:31:40.792Z,100754
2017-11-19T21:34:08.960Z,100750
2017-11-19T21:36:37.346Z,100757
2017-11-19T21:39:06.097Z,100750
2017-11-19T21:41:34.266Z,100757
2017-11-19T21:44:02.439Z,100761
2017-11-19T21:46:30.583Z,100753
2017-11-19T21:48:58.715Z,100760
2017-11-19T21:51:26.896Z,100748
2017-11-19T21:53:55.067Z,100762
2017-11-19T21:56:23.474Z,100772
2017-11-19T21:58:51.624Z,100766
2017-11-19T22:01:19.766Z,100763
2017-11-19T22:03:47.928Z,100767
2017-11-19T22:06:16.820Z,100772
2017-11-19T22:08:45.708Z,100759
2017-11-19T22:11:14.568Z,100772
2017-11-19T22:13:42.734Z,100772
2017-11-19T22:16:11.355Z,100749
2017-11-19T22:18:40.217Z,100776
2017-11-19T22:21:08.344Z,100771
2017-11-19T22:23:36.459Z,100782
2017-11-19T22:26:04.594Z,100754
2017-11-19T22:28:32.745Z,100782
2017-11-19T22:31:01.654Z,100782
2017-11-19T22:33:29.769Z,100772
2017-11-19T22:35:57.928Z,100780
2017-11-19T22:38:26.054Z,100778
2017-11-19T22:40:54.906Z,100780
2017-11-19T22:43:23.056Z,100781
2017-11-19T22:45:51.203Z,100776
2017-11-19T22:48:19.349Z,100782
2017-11-19T22:50:47.494Z,100782
2017-11-19T22:53:15.607Z,100791
2017-11-19T22:55:44.070Z,100787
2017-11-19T22:58:12.192Z,100789
2017-11-19T23:00:40.371Z,100780
2017-11-19T23:03:08.835Z,100786
2017-11-19T23:05:36.942Z,100782
2017-11-19T23:08:05.082Z,100784
2017-11-19T23:10:33.198Z,100779
2017-11-19T23:13:01.323Z,100785
2017-11-19T23:15:29.470Z,100784
2017-11-19T23:17:57.684Z,100781
2017-11-19T23:20:25.810Z,100783
2017-11-19T23:22:53.938Z,100791
2017-11-19T23:25:22.092Z,100793
2017-11-19T23:27:50.550Z,100793
2017-11-19T23:30:18.682Z,100810
2017-11-19T23:32:46.814Z,100806
2017-11-19T23:35:14.923Z,100802
2017-11-19T23:37:43.060Z,100816
2017-11-19T23:40:11.931Z,100802
2017-11-19T23:42:40.063Z,100790
2017-11-19T23:45:08.199Z,100816
2017-11-19T23:47:36.350Z,100814
2017-11-19T23:50:04.543Z,100825
2017-11-19T23:52:33.128Z,100818
2017-11-19T23:55:02.100Z,100813
2017-11-19T23:57:30.555Z,100821
2017-11-19T23:59:58.716Z,100807
